Time;durP1;ratioP1;P1;durP2;ratioP2;P2;SDS_P1;SDS_P2;PMS_P1;PMS_P2;Temp;Humidity;BMP_temperature;BMP_pressure;BME280_temperature;BME280_humidity;BME280_pressure;Samples;Min_cycle;Max_cycle;Signal;HPM_P1;HPM_P2
2024/01/13 00:02:18;;;;;;;7.55;2.75;;;3.30;99.90;;;;;;5033624;28;20482;-77
2024/01/13 00:04:44;;;;;;;7.15;2.50;;;3.30;99.90;;;;;;5034295;28;20045;-76
2024/01/13 00:07:10;;;;;;;10.00;2.63;;;3.30;99.90;;;;;;5033683;28;20092;-77
2024/01/13 00:09:35;;;;;;;8.55;2.47;;;3.30;99.90;;;;;;5032406;28;20079;-77
2024/01/13 00:12:02;;;;;;;6.93;2.50;;;3.30;99.90;;;;;;5032796;28;20073;-77
2024/01/13 00:14:27;;;;;;;7.50;2.63;;;3.30;99.90;;;;;;5034306;28;20452;-77
2024/01/13 00:16:53;;;;;;;8.32;2.72;;;3.30;99.90;;;;;;5002873;28;20037;-77
2024/01/13 00:19:19;;;;;;;6.18;2.00;;;3.40;99.90;;;;;;5000071;28;20047;-77
2024/01/13 00:21:45;;;;;;;8.40;2.22;;;3.40;99.90;;;;;;5033859;28;20094;-77
2024/01/13 00:24:10;;;;;;;7.20;2.70;;;3.40;99.90;;;;;;5032905;28;20444;-77
2024/01/13 00:26:36;;;;;;;4.75;2.10;;;3.40;99.90;;;;;;5017332;28;20444;-77
2024/01/13 00:29:02;;;;;;;6.25;2.20;;;3.40;99.90;;;;;;5034485;28;20465;-77
2024/01/13 00:31:27;;;;;;;8.30;2.75;;;3.40;99.90;;;;;;5004356;28;20045;-77
2024/01/13 00:33:53;;;;;;;7.25;2.85;;;3.40;99.90;;;;;;5021108;28;20040;-77
2024/01/13 00:36:18;;;;;;;5.30;1.95;;;3.30;99.90;;;;;;5017730;28;20049;-77
2024/01/13 00:38:44;;;;;;;8.73;2.92;;;3.40;99.90;;;;;;5014909;28;20045;-76
2024/01/13 00:41:10;;;;;;;5.93;2.22;;;3.40;99.90;;;;;;5042137;28;20059;-77
2024/01/13 00:43:36;;;;;;;7.65;2.25;;;3.30;99.90;;;;;;5015264;28;20479;-77
2024/01/13 00:46:02;;;;;;;6.63;2.70;;;3.30;99.90;;;;;;5041022;28;20060;-77
2024/01/13 00:48:28;;;;;;;5.65;2.17;;;3.30;99.90;;;;;;5033415;28;20037;-77
2024/01/13 00:50:53;;;;;;;7.00;2.92;;;3.40;99.90;;;;;;5015857;28;20064;-77
2024/01/13 00:53:19;;;;;;;4.93;2.50;;;3.40;99.90;;;;;;5032413;28;20037;-76
2024/01/13 00:55:45;;;;;;;7.78;2.70;;;3.40;99.90;;;;;;5033896;28;20128;-77
2024/01/13 00:58:11;;;;;;;8.15;2.90;;;3.40;99.90;;;;;;5036896;28;20041;-77
2024/01/13 01:00:37;;;;;;;6.93;2.72;;;3.40;99.90;;;;;;5055590;28;20059;-76
2024/01/13 01:03:03;;;;;;;5.97;2.40;;;3.40;99.90;;;;;;5026469;28;20037;-77
2024/01/13 01:05:28;;;;;;;7.05;3.10;;;3.30;99.90;;;;;;5054632;28;20040;-77
2024/01/13 01:07:54;;;;;;;7.15;3.38;;;3.30;99.90;;;;;;5040375;28;20058;-77
2024/01/13 01:10:20;;;;;;;6.10;3.05;;;3.30;99.90;;;;;;5056971;28;20044;-76
2024/01/13 01:12:45;;;;;;;8.05;3.60;;;3.30;99.90;;;;;;5038436;28;20053;-76
2024/01/13 01:15:11;;;;;;;10.05;3.95;;;3.30;99.90;;;;;;5037674;28;20441;-77
2024/01/13 01:17:37;;;;;;;6.82;2.92;;;3.30;99.90;;;;;;5020535;28;20378;-76
2024/01/13 01:20:02;;;;;;;7.18;2.75;;;3.30;99.90;;;;;;5020303;28;20032;-76
2024/01/13 01:22:28;;;;;;;9.43;3.55;;;3.30;99.90;;;;;;5046171;28;20109;-76
2024/01/13 01:24:54;;;;;;;9.05;3.75;;;3.30;99.90;;;;;;5026275;28;20123;-77
2024/01/13 01:27:19;;;;;;;8.98;3.67;;;3.30;99.90;;;;;;5036991;28;20047;-76
2024/01/13 01:29:45;;;;;;;6.43;2.80;;;3.30;99.90;;;;;;5036861;28;20080;-76
2024/01/13 01:32:11;;;;;;;6.25;2.78;;;3.30;99.90;;;;;;5057376;28;20123;-76
2024/01/13 01:34:36;;;;;;;6.70;2.83;;;3.30;99.90;;;;;;5048835;28;20044;-76
2024/01/13 01:37:02;;;;;;;6.63;3.03;;;3.30;99.90;;;;;;5056412;28;20040;-77
2024/01/13 01:39:27;;;;;;;7.43;2.78;;;3.30;99.90;;;;;;5056371;28;20083;-77
2024/01/13 01:41:53;;;;;;;7.15;2.67;;;3.30;99.90;;;;;;5039051;28;20040;-76
2024/01/13 01:44:19;;;;;;;7.30;2.20;;;3.30;99.90;;;;;;5054145;28;20040;-77
2024/01/13 01:46:47;;;;;;;7.45;2.65;;;3.30;99.90;;;;;;5056192;28;20120;-76
2024/01/13 01:49:14;;;;;;;9.13;3.83;;;3.30;99.90;;;;;;5039779;28;20044;-76
2024/01/13 01:51:42;;;;;;;8.35;3.20;;;3.30;99.90;;;;;;5056359;28;20384;-76
2024/01/13 01:54:08;;;;;;;9.50;2.67;;;3.30;99.90;;;;;;5044279;28;20127;-76
2024/01/13 01:56:35;;;;;;;4.25;2.20;;;3.30;99.90;;;;;;5048945;28;20040;-76
2024/01/13 01:59:02;;;;;;;6.05;2.17;;;3.20;99.90;;;;;;5055796;28;20044;-76
2024/01/13 02:01:30;;;;;;;5.18;2.25;;;3.30;99.90;;;;;;5055849;28;20158;-76
2024/01/13 02:03:57;;;;;;;6.57;2.25;;;3.30;99.90;;;;;;5035537;28;20058;-76
2024/01/13 02:06:23;;;;;;;3.30;1.60;;;3.30;99.90;;;;;;5056110;28;20040;-76
2024/01/13 02:08:49;;;;;;;6.03;1.95;;;3.30;99.90;;;;;;5053475;28;20045;-76
2024/01/13 02:11:15;;;;;;;2.53;1.48;;;3.30;99.90;;;;;;5019834;28;20047;-76
2024/01/13 02:13:45;;;;;;;3.65;1.42;;;3.40;99.90;;;;;;5038501;28;20036;-76
2024/01/13 02:16:12;;;;;;;5.00;1.77;;;3.40;99.90;;;;;;5054363;28;20127;-76
2024/01/13 02:18:38;;;;;;;5.40;1.70;;;3.30;99.90;;;;;;5055807;28;20508;-76
2024/01/13 02:21:04;;;;;;;4.55;1.60;;;3.30;99.90;;;;;;5038990;28;20082;-76
2024/01/13 02:23:29;;;;;;;5.50;2.00;;;3.30;99.90;;;;;;5053700;28;20481;-76
2024/01/13 02:25:55;;;;;;;4.18;1.90;;;3.30;99.90;;;;;;5054542;28;20043;-76
2024/01/13 02:28:21;;;;;;;6.30;1.80;;;3.30;99.90;;;;;;5072099;28;20044;-76
2024/01/13 02:30:47;;;;;;;6.68;2.15;;;3.30;99.90;;;;;;5038121;28;20400;-76
2024/01/13 02:33:12;;;;;;;5.72;1.92;;;3.30;99.90;;;;;;5044149;28;20037;-76
2024/01/13 02:35:38;;;;;;;5.40;1.90;;;3.30;99.90;;;;;;5020280;28;20052;-76
2024/01/13 02:38:04;;;;;;;6.90;2.17;;;3.40;99.90;;;;;;5035397;28;20033;-76
2024/01/13 02:40:29;;;;;;;4.43;1.90;;;3.30;99.90;;;;;;5035402;28;20512;-76
2024/01/13 02:42:55;;;;;;;5.68;2.05;;;3.30;99.90;;;;;;5047890;28;20040;-76
2024/01/13 02:45:21;;;;;;;9.48;1.90;;;3.30;99.90;;;;;;5037596;28;20129;-76
2024/01/13 02:47:55;;;;;;;5.60;2.08;;;3.30;99.90;;;;;;5038905;28;20033;-76
2024/01/13 02:50:20;;;;;;;6.70;2.00;;;3.30;99.90;;;;;;5054558;28;20047;-76
2024/01/13 02:52:47;;;;;;;9.25;2.17;;;3.30;99.90;;;;;;5038452;28;20044;-76
2024/01/13 02:55:13;;;;;;;5.53;1.95;;;3.30;99.90;;;;;;5052523;28;20040;-76
2024/01/13 02:57:38;;;;;;;6.32;2.70;;;3.30;99.90;;;;;;5052886;28;20123;-76
2024/01/13 03:00:05;;;;;;;5.05;1.70;;;3.40;99.90;;;;;;5032086;28;20045;-76
2024/01/13 03:02:31;;;;;;;6.75;1.90;;;3.30;99.90;;;;;;5021546;28;20524;-76
2024/01/13 03:04:57;;;;;;;7.35;2.00;;;3.20;99.90;;;;;;5016558;28;20037;-76
2024/01/13 03:07:25;;;;;;;5.07;1.92;;;3.20;99.90;;;;;;5011360;28;20041;-76
2024/01/13 03:09:50;;;;;;;4.55;1.85;;;3.30;99.90;;;;;;5031975;28;20041;-76
2024/01/13 03:12:16;;;;;;;6.80;2.00;;;3.30;99.90;;;;;;5031005;28;20059;-76
2024/01/13 03:14:42;;;;;;;5.47;1.98;;;3.30;99.90;;;;;;5025197;28;20030;-76
2024/01/13 03:17:07;;;;;;;8.68;2.03;;;3.20;99.90;;;;;;5005584;28;20464;-76
2024/01/13 03:19:33;;;;;;;7.40;1.70;;;3.20;99.90;;;;;;5031659;28;20068;-76
2024/01/13 03:21:58;;;;;;;9.00;2.00;;;3.20;99.90;;;;;;5018518;28;20045;-76
2024/01/13 03:24:24;;;;;;;7.20;2.08;;;3.30;99.90;;;;;;5016521;28;20465;-76
2024/01/13 03:26:49;;;;;;;7.63;2.20;;;3.20;99.90;;;;;;5018355;28;20075;-78
2024/01/13 03:29:15;;;;;;;7.28;2.00;;;3.20;99.90;;;;;;5033533;28;20037;-76
2024/01/13 03:31:41;;;;;;;5.78;1.67;;;3.30;99.90;;;;;;5000501;28;20038;-76
2024/01/13 03:34:06;;;;;;;6.55;2.05;;;3.20;99.90;;;;;;4999598;28;20453;-76
2024/01/13 03:36:32;;;;;;;5.65;2.00;;;3.20;99.90;;;;;;5014779;28;20045;-76
2024/01/13 03:38:59;;;;;;;4.97;2.03;;;3.30;99.90;;;;;;5035289;28;20046;-77
2024/01/13 03:41:25;;;;;;;8.27;2.15;;;3.30;99.90;;;;;;5035491;28;20053;-76
2024/01/13 03:43:51;;;;;;;8.45;2.72;;;3.30;99.90;;;;;;5034638;28;20117;-76
2024/01/13 03:46:17;;;;;;;7.80;2.60;;;3.30;99.90;;;;;;5022184;28;20037;-76
2024/01/13 03:48:43;;;;;;;5.95;2.50;;;3.20;99.90;;;;;;5013717;28;20521;-77
2024/01/13 03:51:10;;;;;;;8.90;2.67;;;3.20;99.90;;;;;;5035083;28;20048;-76
2024/01/13 03:53:35;;;;;;;6.65;2.50;;;3.20;99.90;;;;;;5018181;28;20402;-76
2024/01/13 03:56:04;;;;;;;7.68;2.28;;;3.20;99.90;;;;;;5010021;28;20042;-76
2024/01/13 03:58:29;;;;;;;9.65;2.45;;;3.20;99.90;;;;;;5024838;28;20136;-76
2024/01/13 04:00:55;;;;;;;6.38;2.58;;;3.30;99.90;;;;;;5018554;28;20128;-76
2024/01/13 04:03:21;;;;;;;7.95;2.67;;;3.30;99.90;;;;;;5022631;28;20056;-76
2024/01/13 04:05:47;;;;;;;8.02;3.13;;;3.20;99.90;;;;;;5024351;28;20034;-76
2024/01/13 04:08:12;;;;;;;7.13;2.28;;;3.10;99.90;;;;;;5009492;28;20548;-76
2024/01/13 04:10:38;;;;;;;8.30;2.30;;;3.20;99.90;;;;;;5015922;28;20045;-76
2024/01/13 04:13:09;;;;;;;4.28;2.10;;;3.20;99.90;;;;;;5002527;28;20120;-76
2024/01/13 04:15:34;;;;;;;7.50;2.03;;;3.20;99.90;;;;;;5033979;28;20037;-76
2024/01/13 04:18:00;;;;;;;7.30;2.20;;;3.20;99.90;;;;;;5017692;28;20038;-76
2024/01/13 04:20:25;;;;;;;5.45;2.22;;;3.20;99.90;;;;;;5033639;28;20478;-77
2024/01/13 04:22:51;;;;;;;5.68;2.00;;;3.20;99.90;;;;;;5017033;28;20038;-76
2024/01/13 04:25:17;;;;;;;5.47;2.30;;;3.20;99.90;;;;;;5032937;28;20037;-76
2024/01/13 04:27:42;;;;;;;5.07;1.92;;;3.20;99.90;;;;;;5034272;28;20037;-76
2024/01/13 04:30:08;;;;;;;5.32;1.95;;;3.30;99.90;;;;;;5033647;28;20410;-76
2024/01/13 04:32:34;;;;;;;5.57;2.45;;;3.20;99.90;;;;;;4998324;28;20478;-76
2024/01/13 04:34:59;;;;;;;2.75;1.25;;;3.30;99.90;;;;;;5014832;28;20041;-76
2024/01/13 04:37:25;;;;;;;6.18;1.75;;;3.40;99.90;;;;;;5017364;28;20044;-76
2024/01/13 04:39:51;;;;;;;5.60;2.05;;;3.40;99.90;;;;;;5022313;28;20076;-76
2024/01/13 04:42:16;;;;;;;3.83;1.67;;;3.40;99.90;;;;;;5018000;28;20108;-76
2024/01/13 04:44:42;;;;;;;6.75;1.95;;;3.60;99.90;;;;;;5017058;28;20034;-76
2024/01/13 04:47:07;;;;;;;7.45;2.15;;;3.50;99.90;;;;;;5022059;28;20049;-76
2024/01/13 04:49:33;;;;;;;6.30;1.67;;;3.50;99.90;;;;;;4997641;28;20453;-76
2024/01/13 04:51:59;;;;;;;9.45;2.00;;;3.50;99.90;;;;;;5014486;28;20034;-76
2024/01/13 04:54:24;;;;;;;7.20;2.00;;;3.50;99.90;;;;;;5011654;28;20511;-76
2024/01/13 04:56:50;;;;;;;7.00;2.10;;;3.40;99.90;;;;;;5016986;28;20385;-76
2024/01/13 04:59:15;;;;;;;5.32;1.90;;;3.30;99.90;;;;;;5033640;28;20053;-76
2024/01/13 05:01:41;;;;;;;5.68;2.08;;;3.40;99.90;;;;;;5016634;28;20115;-76
2024/01/13 05:04:07;;;;;;;4.95;2.00;;;3.40;99.90;;;;;;5007161;28;20061;-76
2024/01/13 05:06:32;;;;;;;7.75;1.90;;;3.40;99.90;;;;;;5028098;28;20060;-77
2024/01/13 05:08:59;;;;;;;5.85;2.10;;;3.40;99.90;;;;;;5033397;28;20089;-76
2024/01/13 05:11:25;;;;;;;3.67;1.60;;;3.40;99.90;;;;;;5016409;28;20120;-76
2024/01/13 05:13:50;;;;;;;7.30;2.20;;;3.40;99.90;;;;;;5033250;28;20599;-76
2024/01/13 05:16:16;;;;;;;5.10;1.80;;;3.40;99.90;;;;;;5017345;28;20053;-76
2024/01/13 05:18:42;;;;;;;3.65;1.80;;;3.40;99.90;;;;;;5019300;28;20041;-76
2024/01/13 05:21:07;;;;;;;6.45;1.75;;;3.40;99.90;;;;;;5024054;28;20421;-76
2024/01/13 05:23:33;;;;;;;6.35;2.08;;;3.40;99.90;;;;;;5016841;28;20043;-76
2024/01/13 05:25:58;;;;;;;6.35;1.73;;;3.40;99.90;;;;;;5007103;28;20034;-76
2024/01/13 05:28:25;;;;;;;5.45;1.65;;;3.50;99.90;;;;;;5009614;28;20048;-76
2024/01/13 05:30:50;;;;;;;7.15;2.08;;;3.50;99.90;;;;;;5015737;28;20120;-76
2024/01/13 05:33:17;;;;;;;5.78;1.38;;;3.50;99.90;;;;;;5030881;28;20168;-76
2024/01/13 05:35:42;;;;;;;4.80;1.73;;;3.50;99.90;;;;;;5006632;28;20041;-76
2024/01/13 05:38:08;;;;;;;3.20;1.40;;;3.50;99.90;;;;;;5025618;28;20550;-76
2024/01/13 05:40:33;;;;;;;3.63;1.70;;;3.70;99.90;;;;;;5015811;28;20037;-76
2024/01/13 05:43:00;;;;;;;5.97;1.75;;;3.70;99.90;;;;;;5013629;28;20025;-76
2024/01/13 05:45:26;;;;;;;4.88;1.77;;;3.60;99.90;;;;;;5014452;28;20535;-76
2024/01/13 05:47:51;;;;;;;3.97;1.30;;;3.50;99.90;;;;;;5026924;28;20069;-76
2024/01/13 05:50:18;;;;;;;7.70;2.03;;;3.60;99.90;;;;;;5031796;28;20041;-76
2024/01/13 05:52:43;;;;;;;6.93;1.60;;;3.50;99.90;;;;;;5029604;28;20049;-77
2024/01/13 05:55:09;;;;;;;5.97;1.42;;;3.50;99.90;;;;;;5015259;28;20046;-76
2024/01/13 05:57:35;;;;;;;5.75;1.52;;;3.60;99.90;;;;;;5016991;28;20119;-76
2024/01/13 06:00:00;;;;;;;4.93;1.38;;;3.60;99.90;;;;;;5015298;28;20425;-76
2024/01/13 06:02:26;;;;;;;4.18;1.73;;;3.60;99.90;;;;;;5031574;28;20485;-76
2024/01/13 06:04:51;;;;;;;4.55;1.65;;;3.70;99.90;;;;;;5015641;28;20033;-76
2024/01/13 06:07:17;;;;;;;4.28;1.67;;;3.70;99.90;;;;;;5031091;28;20061;-76
2024/01/13 06:09:43;;;;;;;5.57;1.67;;;3.60;99.90;;;;;;5014240;28;20383;-76
2024/01/13 06:12:09;;;;;;;5.60;1.70;;;3.50;99.90;;;;;;5031766;28;20410;-76
2024/01/13 06:14:34;;;;;;;4.25;1.70;;;3.40;99.90;;;;;;5013012;28;20469;-76
2024/01/13 06:17:00;;;;;;;3.63;1.52;;;3.50;99.90;;;;;;5013683;28;20132;-76
2024/01/13 06:19:26;;;;;;;5.63;1.63;;;3.60;99.90;;;;;;5030049;28;20033;-76
2024/01/13 06:21:51;;;;;;;3.95;1.70;;;3.60;99.90;;;;;;5016128;28;20453;-76
2024/01/13 06:24:18;;;;;;;4.07;1.50;;;3.50;99.90;;;;;;5014973;28;20041;-76
2024/01/13 06:26:43;;;;;;;2.40;0.98;;;3.50;99.90;;;;;;5032160;28;20557;-76
2024/01/13 06:29:10;;;;;;;4.03;1.27;;;3.50;99.90;;;;;;5029286;28;20121;-76
2024/01/13 06:31:36;;;;;;;5.70;1.52;;;3.50;99.90;;;;;;5015904;28;20394;-76
2024/01/13 06:34:01;;;;;;;4.10;1.30;;;3.60;99.90;;;;;;5031156;28;20041;-76
2024/01/13 06:36:27;;;;;;;3.63;1.58;;;3.50;99.90;;;;;;5032105;28;20406;-76
2024/01/13 06:38:54;;;;;;;3.22;1.40;;;3.50;99.90;;;;;;5014964;28;20041;-76
2024/01/13 06:41:19;;;;;;;2.22;1.30;;;3.50;99.90;;;;;;5015736;28;20124;-77
2024/01/13 06:43:45;;;;;;;2.75;1.20;;;3.50;99.90;;;;;;5014573;28;20105;-76
2024/01/13 06:46:11;;;;;;;4.10;1.00;;;3.50;99.90;;;;;;5032012;28;20087;-76
2024/01/13 06:48:37;;;;;;;1.92;0.95;;;3.50;99.90;;;;;;5007289;28;20065;-76
2024/01/13 06:51:03;;;;;;;3.00;1.10;;;3.60;99.90;;;;;;5012273;28;20069;-77
2024/01/13 06:53:28;;;;;;;1.55;0.85;;;3.60;99.90;;;;;;5029818;28;20040;-76
2024/01/13 06:55:54;;;;;;;3.30;1.13;;;3.60;99.90;;;;;;5015324;28;20566;-76
2024/01/13 06:58:19;;;;;;;0.90;0.60;;;3.60;99.90;;;;;;5016696;28;20143;-76
2024/01/13 07:00:45;;;;;;;3.45;1.10;;;3.60;99.90;;;;;;5033334;28;20087;-77
2024/01/13 07:03:11;;;;;;;3.28;1.05;;;3.60;99.90;;;;;;5041914;28;20028;-77
2024/01/13 07:05:36;;;;;;;2.38;1.10;;;3.50;99.90;;;;;;5036520;28;20121;-76
2024/01/13 07:08:04;;;;;;;3.17;0.90;;;3.50;99.90;;;;;;5050575;28;20032;-77
2024/01/13 07:10:30;;;;;;;2.70;1.10;;;3.50;99.90;;;;;;5023367;28;20045;-77
2024/01/13 07:12:57;;;;;;;5.15;1.20;;;3.50;99.90;;;;;;5023665;28;20473;-76
2024/01/13 07:15:22;;;;;;;3.47;1.30;;;3.40;99.90;;;;;;5050494;28;20044;-77
2024/01/13 07:17:48;;;;;;;2.45;1.08;;;3.50;99.90;;;;;;5048525;28;20074;-76
2024/01/13 07:20:14;;;;;;;3.10;1.50;;;3.50;99.90;;;;;;5059671;28;20419;-76
2024/01/13 07:22:40;;;;;;;4.07;1.48;;;3.50;99.90;;;;;;5025691;28;20568;-76
2024/01/13 07:25:07;;;;;;;5.50;1.35;;;3.50;99.90;;;;;;5021338;28;20054;-81
2024/01/13 07:27:32;;;;;;;3.03;1.00;;;3.50;99.90;;;;;;5019973;28;20411;-77
2024/01/13 07:30:02;;;;;;;2.22;1.10;;;3.50;99.90;;;;;;5052371;28;20404;-77
2024/01/13 07:32:27;;;;;;;1.85;0.98;;;3.50;99.90;;;;;;5025656;28;20054;-79
2024/01/13 07:34:53;;;;;;;3.00;1.25;;;3.60;99.90;;;;;;5010826;28;20037;-76
2024/01/13 07:37:18;;;;;;;1.75;0.82;;;3.60;99.90;;;;;;5042490;28;20127;-75
2024/01/13 07:39:44;;;;;;;1.52;0.40;;;3.50;99.90;;;;;;5023269;28;20250;-76
2024/01/13 07:42:10;;;;;;;2.17;1.10;;;3.50;99.90;;;;;;5007562;28;21086;-76
2024/01/13 07:44:36;;;;;;;2.72;0.90;;;3.50;99.90;;;;;;5013769;28;20089;-75
2024/01/13 07:47:03;;;;;;;2.80;1.20;;;3.50;99.90;;;;;;5026196;28;20221;-76
2024/01/13 07:49:32;;;;;;;3.30;1.20;;;3.50;99.90;;;;;;5003092;28;20041;-76
2024/01/13 07:51:58;;;;;;;2.08;1.05;;;3.50;99.90;;;;;;5038164;28;20293;-76
2024/01/13 07:54:23;;;;;;;2.50;1.30;;;3.50;99.90;;;;;;5028073;28;20611;-76
2024/01/13 07:56:50;;;;;;;4.35;1.35;;;3.50;99.90;;;;;;5021409;28;20591;-76
2024/01/13 07:59:17;;;;;;;3.80;1.42;;;3.50;99.90;;;;;;5016432;28;20060;-75
2024/01/13 08:01:43;;;;;;;4.63;1.40;;;3.40;99.90;;;;;;5050048;28;20036;-76
2024/01/13 08:04:09;;;;;;;4.45;1.65;;;3.50;99.90;;;;;;5021057;28;20052;-75
2024/01/13 08:06:35;;;;;;;5.35;1.92;;;3.50;99.90;;;;;;5029194;28;20036;-76
2024/01/13 08:09:04;;;;;;;6.43;2.50;;;3.50;99.90;;;;;;5033351;28;20036;-75
2024/01/13 08:11:30;;;;;;;5.45;2.40;;;3.50;99.90;;;;;;5026357;28;20044;-76
2024/01/13 08:13:59;;;;;;;6.22;2.38;;;3.50;99.90;;;;;;5046859;28;20114;-75
2024/01/13 08:16:25;;;;;;;8.43;4.05;;;3.50;99.90;;;;;;5041663;28;20044;-76
2024/01/13 08:18:50;;;;;;;11.32;4.38;;;3.50;99.90;;;;;;5009650;28;20045;-76
2024/01/13 08:21:16;;;;;;;9.80;4.55;;;3.50;99.90;;;;;;5023506;28;20037;-76
2024/01/13 08:23:42;;;;;;;11.30;5.13;;;3.50;99.90;;;;;;5037635;28;20051;-75
2024/01/13 08:26:07;;;;;;;12.52;5.55;;;3.50;99.90;;;;;;5020756;28;20040;-75
2024/01/13 08:28:33;;;;;;;15.27;6.85;;;3.50;99.90;;;;;;5024052;28;20044;-76
2024/01/13 08:30:59;;;;;;;14.25;6.95;;;3.50;99.90;;;;;;5022136;28;20213;-75
2024/01/13 08:33:25;;;;;;;17.85;7.88;;;3.50;99.90;;;;;;5045726;28;20048;-75
2024/01/13 08:35:51;;;;;;;16.85;7.15;;;3.50;99.90;;;;;;5017371;28;20048;-76
2024/01/13 08:38:16;;;;;;;18.77;8.73;;;3.50;99.90;;;;;;5051002;28;21015;-76
2024/01/13 08:40:45;;;;;;;17.05;8.57;;;3.50;99.90;;;;;;5012939;28;20057;-75
2024/01/13 08:43:11;;;;;;;18.45;8.45;;;3.60;99.90;;;;;;5026846;28;20064;-75
2024/01/13 08:45:37;;;;;;;16.75;9.30;;;3.60;99.90;;;;;;5037035;28;20396;-75
2024/01/13 08:48:03;;;;;;;20.42;9.68;;;3.60;99.90;;;;;;5014649;28;20037;-76
2024/01/13 08:50:29;;;;;;;19.60;9.52;;;3.60;99.90;;;;;;5007640;28;20566;-76
2024/01/13 08:52:55;;;;;;;18.58;9.65;;;3.60;99.90;;;;;;5026666;28;20048;-75
2024/01/13 08:55:24;;;;;;;26.67;11.68;;;3.70;99.90;;;;;;5036217;28;20498;-76
2024/01/13 08:57:50;;;;;;;22.23;12.65;;;3.70;99.90;;;;;;5056949;28;20123;-76
2024/01/13 09:00:16;;;;;;;27.52;12.23;;;3.60;99.90;;;;;;5054446;28;20181;-76
2024/01/13 09:02:43;;;;;;;27.80;12.55;;;3.60;99.90;;;;;;5056240;28;20123;-76
2024/01/13 09:05:09;;;;;;;25.25;12.65;;;3.70;99.90;;;;;;5040308;28;20036;-76
2024/01/13 09:07:35;;;;;;;28.38;12.63;;;3.60;99.90;;;;;;5056311;28;20044;-76
2024/01/13 09:10:02;;;;;;;29.52;14.40;;;3.60;99.90;;;;;;5055566;28;20036;-75
2024/01/13 09:12:27;;;;;;;27.02;12.25;;;3.50;99.90;;;;;;5048821;28;20102;-76
2024/01/13 09:14:53;;;;;;;28.83;14.77;;;3.60;99.90;;;;;;5052989;28;20041;-76
2024/01/13 09:17:19;;;;;;;27.58;13.60;;;3.60;99.90;;;;;;5053098;28;20103;-75
2024/01/13 09:19:44;;;;;;;25.63;13.02;;;3.60;99.90;;;;;;5038013;28;20033;-75
2024/01/13 09:22:10;;;;;;;18.25;8.95;;;3.70;99.90;;;;;;5054665;28;20032;-76
2024/01/13 09:24:35;;;;;;;34.83;16.92;;;3.70;99.90;;;;;;5040258;28;20062;-76
2024/01/13 09:27:01;;;;;;;41.70;20.50;;;3.70;99.90;;;;;;5056307;28;20607;-76
2024/01/13 09:29:27;;;;;;;35.72;20.75;;;3.70;99.90;;;;;;5056211;28;20560;-76
2024/01/13 09:31:53;;;;;;;40.47;20.90;;;3.70;99.90;;;;;;5051959;28;20120;-76
2024/01/13 09:34:19;;;;;;;39.88;19.38;;;3.70;99.90;;;;;;5054885;28;20111;-77
2024/01/13 09:36:45;;;;;;;39.75;21.98;;;3.70;99.90;;;;;;5056112;28;20063;-76
2024/01/13 09:39:11;;;;;;;37.53;20.77;;;3.70;99.90;;;;;;5056122;28;20044;-76
2024/01/13 09:41:42;;;;;;;40.08;20.67;;;3.70;99.90;;;;;;5035656;28;20425;-76
2024/01/13 09:44:22;;;;;;;36.15;20.02;;;3.70;99.90;;;;;;5054034;28;20087;-76
2024/01/13 09:46:52;;;;;;;43.63;21.67;;;3.70;99.90;;;;;;5055980;28;20396;-76
2024/01/13 09:49:19;;;;;;;38.35;19.02;;;3.70;99.90;;;;;;5056087;28;20055;-76
2024/01/13 09:51:45;;;;;;;38.90;20.48;;;3.70;99.90;;;;;;5039092;28;20127;-76
2024/01/13 09:54:14;;;;;;;36.97;19.60;;;3.70;99.90;;;;;;5053825;28;20136;-76
2024/01/13 09:56:44;;;;;;;38.05;20.00;;;3.70;99.90;;;;;;5039021;28;20041;-76
2024/01/13 09:59:11;;;;;;;42.63;23.63;;;3.80;99.90;;;;;;5026212;28;20095;-76
2024/01/13 10:01:37;;;;;;;45.85;23.48;;;3.80;99.90;;;;;;5014837;28;20456;-76
2024/01/13 10:04:02;;;;;;;45.28;25.83;;;3.80;99.90;;;;;;5030403;28;20037;-76
2024/01/13 10:06:31;;;;;;;44.90;25.38;;;3.80;99.90;;;;;;5032641;28;20394;-76
2024/01/13 10:08:57;;;;;;;43.47;24.20;;;3.80;99.90;;;;;;5014603;28;20045;-76
2024/01/13 10:11:22;;;;;;;43.65;25.67;;;3.80;99.90;;;;;;5015057;28;20048;-76
2024/01/13 10:13:59;;;;;;;50.08;27.15;;;3.80;99.90;;;;;;5030943;28;20042;-76
2024/01/13 10:16:27;;;;;;;45.53;25.35;;;3.80;99.90;;;;;;5032357;28;20048;-76
2024/01/13 10:18:52;;;;;;;46.08;24.85;;;3.80;99.90;;;;;;5031742;28;20052;-76
2024/01/13 10:21:18;;;;;;;40.13;22.05;;;3.80;99.90;;;;;;5016177;28;20033;-76
2024/01/13 10:23:44;;;;;;;44.08;24.02;;;3.90;99.90;;;;;;5028940;28;20037;-76
2024/01/13 10:26:10;;;;;;;40.88;22.15;;;3.80;99.90;;;;;;5008670;28;20114;-77
2024/01/13 10:28:36;;;;;;;32.17;17.58;;;3.90;99.90;;;;;;5031960;28;20095;-76
2024/01/13 10:31:02;;;;;;;42.45;23.85;;;3.90;99.90;;;;;;5031689;28;20494;-76
2024/01/13 10:33:30;;;;;;;39.38;23.15;;;3.90;99.90;;;;;;5032017;28;20052;-76
2024/01/13 10:35:57;;;;;;;39.33;23.38;;;3.90;99.90;;;;;;5012321;28;20033;-76
2024/01/13 10:38:22;;;;;;;42.00;23.83;;;3.90;99.90;;;;;;5031983;28;20080;-76
2024/01/13 10:40:49;;;;;;;39.65;23.40;;;3.90;99.90;;;;;;5015278;28;20045;-76
2024/01/13 10:43:17;;;;;;;40.42;21.10;;;3.90;99.90;;;;;;5032355;28;20041;-76
2024/01/13 10:45:49;;;;;;;43.33;24.30;;;3.90;99.90;;;;;;5028895;28;20037;-76
2024/01/13 10:48:22;;;;;;;39.33;23.23;;;3.90;99.90;;;;;;5015596;28;20048;-76
2024/01/13 10:50:49;;;;;;;45.10;24.73;;;3.90;99.90;;;;;;5015614;28;20049;-77
2024/01/13 10:53:26;;;;;;;38.83;21.92;;;3.90;99.90;;;;;;5014966;28;20045;-76
2024/01/13 10:55:53;;;;;;;38.20;22.63;;;3.90;99.90;;;;;;5027896;28;20120;-76
2024/01/13 10:58:20;;;;;;;40.28;22.52;;;4.00;99.90;;;;;;5019862;28;20079;-76
2024/01/13 11:00:46;;;;;;;39.70;21.42;;;4.10;99.90;;;;;;5038180;28;20040;-76
2024/01/13 11:03:18;;;;;;;39.65;22.58;;;4.00;99.90;;;;;;5071313;28;20493;-76
2024/01/13 11:05:43;;;;;;;42.65;21.50;;;4.00;99.90;;;;;;5036201;28;20036;-76
2024/01/13 11:08:10;;;;;;;38.00;21.20;;;4.00;99.90;;;;;;5054094;28;20032;-76
2024/01/13 11:10:41;;;;;;;28.38;14.35;;;4.00;99.90;;;;;;5054605;28;20093;-76
2024/01/13 11:13:25;;;;;;;40.88;23.52;;;4.00;99.90;;;;;;5034713;28;20536;-76
2024/01/13 11:16:05;;;;;;;36.65;21.17;;;4.00;99.90;;;;;;5041184;28;20040;-76
2024/01/13 11:18:37;;;;;;;36.92;20.85;;;4.00;99.90;;;;;;5037496;28;20044;-76
2024/01/13 11:21:06;;;;;;;38.22;20.02;;;4.00;99.90;;;;;;5054329;28;20437;-76
2024/01/13 11:23:37;;;;;;;29.23;16.13;;;4.00;99.90;;;;;;5038295;28;20128;-76
2024/01/13 11:26:03;;;;;;;31.63;17.55;;;4.10;99.90;;;;;;5036660;28;20036;-76
2024/01/13 11:28:48;;;;;;;31.33;17.65;;;4.10;99.90;;;;;;5047815;28;20128;-76
2024/01/13 11:31:38;;;;;;;33.47;18.42;;;4.10;99.90;;;;;;5050567;28;20051;-76
2024/01/13 11:34:07;;;;;;;32.05;18.15;;;4.10;99.90;;;;;;5044062;28;20082;-77
2024/01/13 11:36:34;;;;;;;30.38;16.67;;;4.10;99.90;;;;;;5033759;28;20044;-76
2024/01/13 11:39:01;;;;;;;30.73;14.95;;;4.10;99.90;;;;;;5034723;28;20523;-76
2024/01/13 11:41:50;;;;;;;31.05;16.95;;;4.10;99.90;;;;;;5037302;28;20036;-76
2024/01/13 11:44:41;;;;;;;27.88;15.30;;;4.20;99.90;;;;;;5055490;28;20040;-76
2024/01/13 11:47:08;;;;;;;30.15;16.30;;;4.20;99.90;;;;;;5042351;28;20443;-76
2024/01/13 11:49:37;;;;;;;29.33;15.93;;;4.20;99.90;;;;;;5052395;28;20041;-76
2024/01/13 11:52:05;;;;;;;29.95;15.93;;;4.30;99.90;;;;;;5041429;28;20083;-76
2024/01/13 11:54:33;;;;;;;22.80;13.30;;;4.40;99.90;;;;;;5041614;28;20127;-76
2024/01/13 11:57:00;;;;;;;29.63;16.58;;;4.40;99.90;;;;;;5057854;28;20119;-76
2024/01/13 11:59:26;;;;;;;24.48;13.52;;;4.40;99.90;;;;;;5026214;28;20132;-76
2024/01/13 12:01:56;;;;;;;22.77;12.30;;;4.40;99.90;;;;;;5030709;28;20582;-76
2024/01/13 12:04:25;;;;;;;21.63;11.82;;;4.40;99.90;;;;;;5057276;28;20039;-76
2024/01/13 12:06:53;;;;;;;28.08;13.25;;;4.50;99.90;;;;;;5056997;28;20040;-76
2024/01/13 12:09:22;;;;;;;19.13;9.80;;;4.50;99.90;;;;;;5035642;28;20068;-76
2024/01/13 12:11:56;;;;;;;22.75;11.57;;;4.50;99.90;;;;;;5040722;28;20033;-76
2024/01/13 12:14:29;;;;;;;24.05;12.13;;;4.50;99.90;;;;;;5037986;28;20041;-76
2024/01/13 12:16:56;;;;;;;25.20;13.00;;;4.50;99.90;;;;;;5054569;28;20063;-76
2024/01/13 12:19:25;;;;;;;27.38;11.65;;;4.40;99.90;;;;;;5053018;28;20554;-76
2024/01/13 12:21:51;;;;;;;24.77;12.40;;;4.40;99.90;;;;;;5040192;28;20043;-76
2024/01/13 12:24:16;;;;;;;20.77;9.35;;;4.50;99.90;;;;;;5021366;28;20037;-76
2024/01/13 12:26:43;;;;;;;21.17;10.63;;;4.50;99.90;;;;;;5038710;28;20068;-76
2024/01/13 12:29:10;;;;;;;18.45;9.43;;;4.50;99.90;;;;;;5029020;28;20052;-76
2024/01/13 12:31:37;;;;;;;21.35;11.77;;;4.50;99.90;;;;;;5040910;28;20489;-76
2024/01/13 12:34:30;;;;;;;22.02;10.00;;;4.50;99.90;;;;;;5037037;28;20090;-76
2024/01/13 12:36:57;;;;;;;22.20;10.13;;;4.50;99.90;;;;;;5053520;28;20048;-76
2024/01/13 12:39:24;;;;;;;22.75;11.15;;;4.40;99.90;;;;;;5037946;28;20037;-76
2024/01/13 12:41:51;;;;;;;19.20;9.68;;;4.40;99.90;;;;;;5029525;28;20067;-76
2024/01/13 12:44:17;;;;;;;19.23;9.00;;;4.40;99.90;;;;;;5051068;28;20036;-76
2024/01/13 12:46:43;;;;;;;20.27;9.25;;;4.40;99.90;;;;;;5051835;28;20083;-76
2024/01/13 12:49:18;;;;;;;16.17;8.73;;;4.40;99.90;;;;;;5034301;28;20067;-76